Time;durP1;ratioP1;P1;durP2;ratioP2;P2;SDS_P1;SDS_P2;PMS_P1;PMS_P2;Temp;Humidity;BMP_temperature;BMP_pressure;BME280_temperature;BME280_humidity;BME280_pressure;Samples;Min_cycle;Max_cycle;Signal;HPM_P1;HPM_P2
2023/09/10 00:00:10;;;;;;;20.60;13.52;;;;;;;27.86;78.96;99216.06;5107492;27;20039;-87
2023/09/10 00:02:54;;;;;;;19.00;13.43;;;;;;;27.82;79.80;99222.38;5110288;27;20031;-86
2023/09/10 00:05:38;;;;;;;16.40;13.15;;;;;;;27.75;79.64;99220.91;5110315;27;20046;-87
2023/09/10 00:08:22;;;;;;;16.13;13.38;;;;;;;27.78;79.36;99219.47;5119690;27;20425;-89
2023/09/10 00:11:05;;;;;;;18.50;13.82;;;;;;;27.66;79.64;99217.31;5109312;27;20034;-86
2023/09/10 00:13:49;;;;;;;18.73;13.75;;;;;;;27.72;79.68;99224.22;5107393;27;20131;-86
2023/09/10 00:16:33;;;;;;;21.25;13.77;;;;;;;27.67;79.92;99215.44;5098515;28;20035;-87
2023/09/10 00:19:18;;;;;;;17.80;13.43;;;;;;;27.56;80.34;99223.75;5110402;27;20046;-88
2023/09/10 00:22:02;;;;;;;21.45;14.77;;;;;;;27.43;81.08;99219.94;5103217;27;20127;-85
2023/09/10 00:24:46;;;;;;;22.13;15.73;;;;;;;27.57;80.88;99214.56;5111283;27;20401;-85
2023/09/10 00:27:30;;;;;;;22.80;15.98;;;;;;;27.46;81.05;99213.16;5105204;27;20054;-88
2023/09/10 00:30:14;;;;;;;27.17;16.08;;;;;;;27.37;81.38;99215.78;5119702;27;20042;-86
2023/09/10 00:32:58;;;;;;;23.95;15.75;;;;;;;27.37;81.86;99216.56;5106237;27;20038;-86
2023/09/10 00:35:43;;;;;;;23.15;14.75;;;;;;;27.42;81.71;99218.34;5117799;27;20051;-86
2023/09/10 00:38:27;;;;;;;21.02;14.82;;;;;;;27.48;81.83;99219.84;5119005;27;20049;-86
2023/09/10 00:41:11;;;;;;;28.33;16.45;;;;;;;27.70;81.02;99214.81;5108832;27;20094;-87
2023/09/10 00:43:55;;;;;;;22.55;16.48;;;;;;;27.70;81.01;99206.72;5118237;27;20578;-88
2023/09/10 00:46:39;;;;;;;19.50;16.15;;;;;;;27.53;81.88;99212.78;5100384;27;20057;-86
2023/09/10 00:49:23;;;;;;;20.90;16.10;;;;;;;27.50;81.81;99206.84;5122725;27;21144;-87
2023/09/10 00:52:08;;;;;;;27.23;17.17;;;;;;;27.35;82.54;99207.22;5105032;28;20041;-87
2023/09/10 00:54:52;;;;;;;21.38;15.00;;;;;;;27.49;82.10;99202.56;5122681;27;20083;-87
2023/09/10 00:57:36;;;;;;;18.38;15.70;;;;;;;27.41;82.24;99200.59;5105151;27;20038;-86
2023/09/10 01:00:21;;;;;;;20.40;16.15;;;;;;;27.29;82.93;99192.22;5120918;27;20041;-86
2023/09/10 01:03:06;;;;;;;23.48;16.98;;;;;;;27.17;83.25;99182.78;5122209;27;20095;-86
2023/09/10 01:05:51;;;;;;;23.27;16.23;;;;;;;27.23;83.03;99189.66;5105081;28;20042;-86
2023/09/10 01:08:35;;;;;;;29.77;16.83;;;;;;;27.18;83.28;99176.28;5126219;27;20072;-86
2023/09/10 01:12:02;;;;;;;21.63;15.13;;;;;;;27.34;82.98;99176.75;5120968;27;20388;-86
2023/09/10 01:15:04;;;;;;;19.95;16.42;;;;;;;27.32;83.08;99180.88;5066397;27;20074;-86
2023/09/10 01:17:59;;;;;;;26.70;17.65;;;;;;;27.17;83.79;99177.41;5101256;28;20074;-86
2023/09/10 01:21:11;;;;;;;21.85;17.52;;;;;;;27.19;84.40;99179.78;5122115;28;20054;-87
2023/09/10 01:24:12;;;;;;;24.40;16.13;;;;;;;27.28;83.74;99177.97;5112561;28;20092;-84
2023/09/10 01:26:57;;;;;;;27.42;17.30;;;;;;;27.21;83.84;99175.69;5124333;28;20499;-84
2023/09/10 01:29:42;;;;;;;21.08;16.88;;;;;;;27.12;84.16;99171.31;5119850;28;20058;-86
2023/09/10 01:32:32;;;;;;;19.55;16.23;;;;;;;27.17;84.15;99180.09;5119800;28;20038;-84
2023/09/10 01:35:20;;;;;;;24.48;17.13;;;;;;;27.08;84.38;99179.19;5118349;28;20503;-85
2023/09/10 01:38:15;;;;;;;25.15;16.90;;;;;;;27.14;84.42;99174.50;5119959;28;20120;-83
2023/09/10 01:41:17;;;;;;;25.17;17.05;;;;;;;27.27;83.98;99170.19;5117022;28;20112;-84
2023/09/10 01:44:02;;;;;;;21.42;16.08;;;;;;;27.03;84.33;99174.72;5106634;28;20073;-86
2023/09/10 01:46:47;;;;;;;21.20;16.23;;;;;;;27.08;84.28;99171.91;5116323;28;20050;-85
2023/09/10 01:49:32;;;;;;;19.42;15.63;;;;;;;27.08;84.19;99173.81;5120888;28;20409;-86
2023/09/10 01:52:16;;;;;;;23.38;15.82;;;;;;;27.09;84.12;99172.69;5107094;28;20521;-85
2023/09/10 01:55:00;;;;;;;22.85;15.52;;;;;;;27.11;84.13;99170.50;5102983;28;20549;-87
2023/09/10 01:57:44;;;;;;;21.35;15.93;;;;;;;27.08;84.16;99176.50;5122277;28;20122;-87
2023/09/10 02:00:27;;;;;;;21.15;15.25;;;;;;;27.05;83.88;99169.03;5104386;27;20050;-85
2023/09/10 02:03:11;;;;;;;20.25;15.30;;;;;;;27.07;83.67;99169.50;5125035;27;20054;-85
2023/09/10 02:05:57;;;;;;;24.10;16.35;;;;;;;27.03;83.99;99163.16;5105764;27;20041;-86
2023/09/10 02:08:41;;;;;;;23.25;15.13;;;;;;;27.06;84.00;99178.69;5111726;27;20054;-86
2023/09/10 02:11:27;;;;;;;19.60;14.63;;;;;;;27.10;83.89;99177.00;5126176;27;20171;-87
2023/09/10 02:14:11;;;;;;;20.65;14.75;;;;;;;27.03;84.07;99176.63;5123004;27;20108;-87
2023/09/10 02:16:55;;;;;;;23.52;14.80;;;;;;;27.05;83.59;99179.78;5109908;27;20066;-86
2023/09/10 02:19:39;;;;;;;21.85;14.40;;;;;;;26.98;83.60;99182.13;5109769;27;20495;-87
2023/09/10 02:22:23;;;;;;;24.10;15.23;;;;;;;27.10;83.27;99174.28;5120931;27;20043;-86
2023/09/10 02:25:07;;;;;;;15.15;13.27;;;;;;;27.09;83.13;99172.69;5111656;27;20057;-85
2023/09/10 02:27:52;;;;;;;17.02;11.93;;;;;;;27.11;82.80;99165.13;5108504;27;20112;-86
2023/09/10 02:30:36;;;;;;;23.45;13.70;;;;;;;27.06;82.98;99170.63;5117467;27;20538;-85
2023/09/10 02:33:19;;;;;;;19.45;13.93;;;;;;;27.05;82.66;99177.09;5103162;27;20545;-85
2023/09/10 02:36:04;;;;;;;19.10;13.15;;;;;;;27.00;82.45;99175.31;5107800;27;20088;-85
2023/09/10 02:38:48;;;;;;;16.02;12.38;;;;;;;26.99;82.74;99167.53;5112291;27;20100;-86
2023/09/10 02:41:32;;;;;;;14.93;11.18;;;;;;;26.97;81.96;99169.75;5122873;27;20054;-85
2023/09/10 02:44:16;;;;;;;20.42;11.63;;;;;;;26.94;82.11;99161.16;5110279;27;20070;-86
2023/09/10 02:47:01;;;;;;;17.00;11.25;;;;;;;26.84;81.48;99166.72;5121584;27;20451;-87
2023/09/10 02:49:45;;;;;;;13.10;9.88;;;;;;;26.87;81.62;99159.97;5120697;27;20053;-86
2023/09/10 02:52:30;;;;;;;18.33;10.18;;;;;;;26.81;81.35;99153.88;5108185;27;20039;-86
2023/09/10 02:55:16;;;;;;;17.45;10.60;;;;;;;26.75;81.27;99163.94;5124106;27;20174;-86
2023/09/10 02:58:01;;;;;;;12.82;10.43;;;;;;;26.80;81.51;99163.03;5107260;27;20084;-86
2023/09/10 03:00:45;;;;;;;13.23;9.48;;;;;;;26.73;81.46;99154.56;5105167;27;20038;-85
2023/09/10 03:03:29;;;;;;;14.88;11.40;;;;;;;26.60;81.80;99156.97;5107966;27;20388;-85
2023/09/10 03:06:13;;;;;;;12.32;11.10;;;;;;;26.60;81.99;99162.34;5107006;27;20108;-86
2023/09/10 03:08:58;;;;;;;17.25;11.52;;;;;;;26.70;82.28;99160.53;5116367;27;20042;-85
2023/09/10 03:11:43;;;;;;;17.48;12.20;;;;;;;26.81;82.23;99168.09;5103186;28;20058;-84
2023/09/10 03:14:27;;;;;;;13.93;10.52;;;;;;;26.86;82.02;99169.94;5103128;27;20092;-85
2023/09/10 03:17:11;;;;;;;14.07;10.65;;;;;;;26.81;81.41;99161.94;5122927;27;20070;-85
2023/09/10 03:19:55;;;;;;;13.60;10.73;;;;;;;26.81;81.29;99161.94;5101983;28;20143;-84
2023/09/10 03:22:40;;;;;;;14.05;10.68;;;;;;;26.75;81.20;99163.94;5104556;27;20167;-85
2023/09/10 03:25:24;;;;;;;12.68;9.18;;;;;;;26.66;81.24;99157.66;5108778;27;20050;-84
2023/09/10 03:28:08;;;;;;;14.27;10.32;;;;;;;26.66;81.26;99163.03;5125573;27;20506;-85
2023/09/10 03:30:57;;;;;;;14.85;10.82;;;;;;;26.81;81.39;99161.94;5125039;27;20038;-83
2023/09/10 03:33:41;;;;;;;16.50;10.95;;;;;;;26.84;81.27;99157.84;5119866;27;20087;-85
2023/09/10 03:36:25;;;;;;;15.30;10.93;;;;;;;26.72;81.09;99152.94;5100943;28;20507;-85
2023/09/10 03:39:09;;;;;;;20.60;11.32;;;;;;;26.64;81.38;99152.56;5098542;28;20092;-86
2023/09/10 03:41:53;;;;;;;18.73;11.88;;;;;;;26.73;81.11;99162.66;5093305;28;20043;-86
2023/09/10 03:44:38;;;;;;;15.25;10.80;;;;;;;26.74;81.42;99156.16;5090235;28;20092;-85
2023/09/10 03:47:22;;;;;;;14.82;10.85;;;;;;;26.67;81.48;99157.34;5100548;28;20043;-86
2023/09/10 03:50:06;;;;;;;16.33;11.52;;;;;;;26.67;81.00;99157.34;5091165;28;20061;-85
2023/09/10 03:52:50;;;;;;;16.40;11.07;;;;;;;26.50;81.85;99162.53;5091216;28;20101;-86
2023/09/10 03:55:34;;;;;;;21.50;11.25;;;;;;;26.52;81.51;99158.44;5095310;28;20054;-87
2023/09/10 03:58:18;;;;;;;15.13;10.52;;;;;;;26.54;81.22;99158.16;5106634;28;20112;-87
2023/09/10 04:01:02;;;;;;;14.63;10.52;;;;;;;26.41;81.68;99142.78;5098922;28;20513;-86
2023/09/10 04:03:46;;;;;;;13.65;10.45;;;;;;;26.38;81.67;99160.31;5089728;28;20108;-86
2023/09/10 04:06:30;;;;;;;11.07;9.65;;;;;;;26.29;82.07;99160.19;5101976;28;20660;-85
2023/09/10 04:09:14;;;;;;;14.70;10.25;;;;;;;26.27;81.68;99159.72;5100704;28;20042;-84
2023/09/10 04:11:58;;;;;;;13.75;10.10;;;;;;;26.21;82.11;99158.22;5099839;28;20026;-85
2023/09/10 04:14:42;;;;;;;15.48;10.32;;;;;;;26.09;82.38;99162.13;5089690;28;20455;-84
2023/09/10 04:17:28;;;;;;;14.20;10.68;;;;;;;26.16;82.10;99152.91;5099096;28;20176;-84
2023/09/10 04:20:13;;;;;;;15.13;10.05;;;;;;;26.18;82.04;99151.53;5091481;28;20512;-84
2023/09/10 04:22:57;;;;;;;14.23;10.25;;;;;;;26.18;82.37;99140.75;5091915;28;20456;-85
2023/09/10 04:25:41;;;;;;;15.35;10.13;;;;;;;26.16;82.00;99144.81;5100769;28;20106;-85
2023/09/10 04:28:25;;;;;;;19.33;10.43;;;;;;;26.05;82.19;99150.38;5104349;28;20109;-86
2023/09/10 04:31:13;;;;;;;15.02;10.10;;;;;;;26.11;82.09;99148.41;5090456;28;20038;-85
2023/09/10 04:33:57;;;;;;;15.07;10.82;;;;;;;26.09;81.88;99148.69;5102555;28;20121;-84
2023/09/10 04:36:41;;;;;;;16.33;10.55;;;;;;;26.08;81.71;99151.69;5112551;27;20046;-85
2023/09/10 04:39:26;;;;;;;12.05;9.52;;;;;;;26.25;81.61;99147.66;5122291;27;20096;-85
2023/09/10 04:42:10;;;;;;;15.98;10.13;;;;;;;26.31;80.96;99149.94;5125215;27;20034;-84
2023/09/10 04:44:54;;;;;;;16.48;9.85;;;;;;;26.33;80.75;99158.50;5118099;27;20523;-84
2023/09/10 04:47:38;;;;;;;17.35;9.60;;;;;;;26.37;80.46;99154.16;5103089;27;20503;-85
2023/09/10 04:50:22;;;;;;;18.02;9.85;;;;;;;26.34;80.63;99154.75;5120759;27;20031;-85
2023/09/10 04:53:06;;;;;;;14.05;9.38;;;;;;;26.25;80.78;99145.75;5118779;27;20054;-85
2023/09/10 04:55:56;;;;;;;17.65;10.20;;;;;;;26.22;80.72;99146.34;5117656;27;20039;-85
2023/09/10 04:58:40;;;;;;;16.30;9.85;;;;;;;26.19;80.31;99153.13;5120728;27;20042;-85
2023/09/10 05:01:24;;;;;;;12.27;8.77;;;;;;;26.20;80.12;99152.03;5106022;27;20581;-84
2023/09/10 05:04:08;;;;;;;13.68;10.00;;;;;;;26.14;80.59;99152.38;5123634;27;20096;-84
2023/09/10 05:06:52;;;;;;;12.60;9.27;;;;;;;26.19;80.29;99149.63;5119675;27;20045;-83
2023/09/10 05:09:36;;;;;;;15.57;9.25;;;;;;;26.24;80.06;99146.84;5100053;28;20034;-86
2023/09/10 05:12:20;;;;;;;15.93;9.70;;;;;;;26.14;80.26;99155.06;5123761;27;20049;-86
2023/09/10 05:15:04;;;;;;;16.38;9.48;;;;;;;26.25;80.20;99144.97;5120237;27;20073;-86
2023/09/10 05:17:48;;;;;;;17.63;10.07;;;;;;;26.13;80.34;99153.47;5121624;27;20092;-86
2023/09/10 05:20:32;;;;;;;12.98;9.10;;;;;;;26.13;80.36;99153.47;5122246;28;20243;-85
2023/09/10 05:23:16;;;;;;;14.63;8.98;;;;;;;26.14;80.09;99152.38;5121271;28;20091;-86
2023/09/10 05:26:02;;;;;;;14.70;9.90;;;;;;;26.23;80.05;99147.94;5117865;28;20417;-85
2023/09/10 05:28:46;;;;;;;12.32;8.57;;;;;;;26.22;79.66;99157.91;5120174;28;20103;-86
2023/09/10 05:31:30;;;;;;;11.65;9.02;;;;;;;26.15;79.77;99151.31;5107742;28;20516;-85
2023/09/10 05:34:16;;;;;;;17.52;10.02;;;;;;;26.03;80.15;99166.00;5107809;28;20042;-86
2023/09/10 05:37:00;;;;;;;12.30;9.10;;;;;;;25.97;80.47;99155.63;5107849;27;20550;-86
2023/09/10 05:39:44;;;;;;;13.32;10.05;;;;;;;25.87;80.73;99157.41;5106818;27;20080;-87
2023/09/10 05:42:28;;;;;;;14.10;9.90;;;;;;;25.89;80.65;99165.16;5121745;27;20541;-86
2023/09/10 05:45:12;;;;;;;17.92;10.10;;;;;;;25.89;80.78;99165.16;5121627;27;20050;-84
2023/09/10 05:47:56;;;;;;;12.20;9.20;;;;;;;25.95;80.35;99169.38;5118081;27;20134;-86
2023/09/10 05:50:41;;;;;;;10.45;8.23;;;;;;;25.96;80.52;99176.34;5120233;27;20947;-86
2023/09/10 05:53:25;;;;;;;12.52;9.25;;;;;;;26.00;80.59;99176.53;5107242;27;20395;-84
2023/09/10 05:56:09;;;;;;;9.68;8.50;;;;;;;26.00;80.63;99176.53;5103605;27;20063;-86
2023/09/10 05:58:54;;;;;;;13.98;8.90;;;;;;;25.96;80.75;99170.97;5125957;27;20503;-87
2023/09/10 06:01:38;;;;;;;13.63;9.48;;;;;;;26.05;80.41;99174.56;5122955;27;20037;-85
2023/09/10 06:04:22;;;;;;;17.60;9.65;;;;;;;26.06;80.59;99175.38;5123032;27;20100;-85
2023/09/10 06:07:06;;;;;;;11.48;9.30;;;;;;;26.14;80.34;99180.06;5119205;27;20049;-85
2023/09/10 06:09:50;;;;;;;13.50;9.80;;;;;;;26.20;80.54;99180.81;5116869;27;20054;-85
2023/09/10 06:12:38;;;;;;;17.13;10.32;;;;;;;26.27;80.10;99181.22;5118121;27;20158;-87
2023/09/10 06:15:23;;;;;;;14.48;10.05;;;;;;;26.19;79.90;99184.63;5105455;27;20060;-86
2023/09/10 06:18:07;;;;;;;17.67;9.63;;;;;;;26.39;79.95;99191.50;5121712;27;20038;-88
2023/09/10 06:20:52;;;;;;;12.82;9.80;;;;;;;26.44;79.76;99204.09;5108425;27;20046;-86
2023/09/10 06:23:36;;;;;;;11.35;9.45;;;;;;;26.54;79.40;99189.66;5103635;27;20043;-85
2023/09/10 06:26:20;;;;;;;17.70;10.98;;;;;;;26.45;79.62;99193.03;5117746;27;20549;-86
2023/09/10 06:29:05;;;;;;;18.08;11.50;;;;;;;26.58;79.89;99196.84;5103928;27;20087;-87
2023/09/10 06:31:49;;;;;;;12.52;10.00;;;;;;;26.63;79.71;99199.44;5127775;27;20054;-85
2023/09/10 06:34:33;;;;;;;18.98;13.25;;;;;;;26.56;80.21;99203.59;5122866;27;20122;-88
2023/09/10 06:37:17;;;;;;;15.63;12.25;;;;;;;26.67;80.27;99196.94;5105685;27;20054;-87
2023/09/10 06:40:02;;;;;;;19.42;12.77;;;;;;;26.66;80.51;99206.13;5102270;27;20201;-86
2023/09/10 06:42:46;;;;;;;16.50;13.10;;;;;;;26.98;79.87;99203.66;5109176;27;20038;-87
2023/09/10 06:45:30;;;;;;;21.95;13.00;;;;;;;26.91;80.27;99204.06;5107539;27;20042;-87
2023/09/10 06:48:14;;;;;;;18.58;11.98;;;;;;;27.12;79.65;99201.75;5101518;28;20070;-87
2023/09/10 06:51:00;;;;;;;18.33;12.93;;;;;;;26.76;80.25;99197.06;5118006;27;20069;-87
2023/09/10 06:53:44;;;;;;;16.83;12.38;;;;;;;27.16;79.36;99197.34;5122642;27;20099;-86
2023/09/10 06:56:31;;;;;;;18.60;12.35;;;;;;;27.16;79.15;99200.06;5120186;27;20119;-86
2023/09/10 06:59:16;;;;;;;17.10;11.50;;;;;;;27.49;78.85;99199.88;5123391;27;20072;-87
2023/09/10 07:02:00;;;;;;;14.50;11.15;;;;;;;27.63;77.97;99207.16;5123054;27;20545;-88
2023/09/10 07:04:47;;;;;;;15.75;10.95;;;;;;;27.90;77.92;99205.44;5119291;27;20058;-88
2023/09/10 07:07:31;;;;;;;19.00;11.75;;;;;;;27.86;77.39;99202.56;5117602;27;20463;-87
2023/09/10 07:10:15;;;;;;;14.07;11.02;;;;;;;27.89;77.20;99203.84;5109150;27;20538;-88
2023/09/10 07:13:05;;;;;;;16.77;10.48;;;;;;;27.91;77.23;99207.84;5112359;27;20042;-87
2023/09/10 07:15:49;;;;;;;17.65;10.48;;;;;;;27.79;77.32;99199.50;5114614;27;20124;-89
2023/09/10 07:18:33;;;;;;;18.80;11.82;;;;;;;27.69;77.27;99205.91;5109658;27;20046;-88
2023/09/10 07:21:17;;;;;;;20.77;11.50;;;;;;;27.90;76.87;99206.25;5101579;28;20116;-90
2023/09/10 07:24:03;;;;;;;13.23;10.27;;;;;;;28.15;76.51;99205.94;5104929;27;20135;-88
2023/09/10 07:26:47;;;;;;;14.88;10.82;;;;;;;28.29;75.68;99212.06;5106620;27;20103;-88
2023/09/10 07:29:32;;;;;;;14.75;8.90;;;;;;;28.47;75.24;99209.47;5109159;27;20068;-87
2023/09/10 07:32:15;;;;;;;16.10;10.98;;;;;;;28.55;74.00;99207.91;5106731;27;20116;-87
2023/09/10 07:34:59;;;;;;;13.52;9.70;;;;;;;28.75;74.08;99206.56;5107351;27;20389;-87
2023/09/10 07:37:43;;;;;;;13.63;10.13;;;;;;;28.96;73.81;99214.13;5131079;27;20046;-87
2023/09/10 07:40:28;;;;;;;12.88;9.73;;;;;;;28.95;73.55;99217.94;5118716;27;20043;-89
2023/09/10 07:43:12;;;;;;;14.80;10.25;;;;;;;28.37;74.00;99210.53;5106556;27;20070;-88
2023/09/10 07:45:56;;;;;;;17.20;10.13;;;;;;;27.88;74.59;99218.44;5121830;27;20159;-88
2023/09/10 07:48:40;;;;;;;16.02;9.95;;;;;;;28.46;73.86;99214.06;5106293;27;20046;-88
2023/09/10 07:51:24;;;;;;;14.73;10.30;;;;;;;28.63;73.49;99221.44;5103109;27;20496;-87
2023/09/10 07:54:08;;;;;;;15.98;10.02;;;;;;;28.73;73.17;99219.59;5120855;27;20123;-88
2023/09/10 07:56:52;;;;;;;11.32;9.70;;;;;;;28.73;73.75;99225.00;5106054;27;20042;-89
2023/09/10 07:59:36;;;;;;;13.90;9.93;;;;;;;28.94;73.02;99222.53;5122373;27;20252;-90
2023/09/10 08:02:22;;;;;;;9.50;8.60;;;;;;;29.09;73.13;99218.63;5112294;27;20055;-88
2023/09/10 08:05:07;;;;;;;12.55;10.40;;;;;;;28.78;73.04;99216.75;5111822;27;20041;-87
2023/09/10 08:07:51;;;;;;;16.67;10.65;;;;;;;29.04;72.42;99224.97;5106825;27;20049;-84
2023/09/10 08:10:35;;;;;;;12.50;9.70;;;;;;;29.31;72.55;99222.31;5107997;27;22008;-88
2023/09/10 08:13:20;;;;;;;13.20;10.20;;;;;;;29.32;71.75;99215.81;5121596;27;20583;-85
2023/09/10 08:16:05;;;;;;;17.55;10.07;;;;;;;29.10;72.39;99216.72;5121284;27;20050;-84
2023/09/10 08:18:50;;;;;;;15.55;10.50;;;;;;;29.20;72.01;99217.22;5108069;27;20050;-88
2023/09/10 08:21:33;;;;;;;17.50;10.27;;;;;;;29.25;71.57;99212.75;5102157;27;20088;-87
2023/09/10 08:24:17;;;;;;;16.45;9.60;;;;;;;29.32;71.46;99219.28;5119129;27;20097;-87
2023/09/10 08:27:05;;;;;;;14.45;8.85;;;;;;;29.70;71.19;99217.13;5097975;28;20449;-87
2023/09/10 08:29:49;;;;;;;12.30;9.55;;;;;;;29.31;71.33;99225.03;5097635;28;20043;-87
2023/09/10 08:32:35;;;;;;;14.25;9.68;;;;;;;29.58;71.45;99212.34;5105325;27;20408;-87
2023/09/10 08:35:21;;;;;;;11.55;9.15;;;;;;;29.55;70.70;99213.00;5118139;27;20530;-87
2023/09/10 08:38:05;;;;;;;11.27;8.80;;;;;;;29.61;70.55;99214.41;5097819;28;20039;-87
2023/09/10 08:40:58;;;;;;;14.25;9.10;;;;;;;29.70;70.61;99223.34;5112115;27;20420;-88
2023/09/10 08:43:53;;;;;;;14.02;9.23;;;;;;;29.47;70.83;99220.75;5106744;27;20084;-88
2023/09/10 08:46:38;;;;;;;13.50;10.40;;;;;;;29.21;71.31;99213.41;5118153;27;20057;-87
2023/09/10 08:49:26;;;;;;;15.50;10.68;;;;;;;29.18;71.57;99205.91;5099083;27;20054;-84
2023/09/10 08:52:10;;;;;;;13.85;9.95;;;;;;;29.27;71.85;99208.63;5101480;27;20062;-84
2023/09/10 08:54:54;;;;;;;14.35;10.07;;;;;;;29.34;72.13;99208.16;5108066;27;20045;-85
2023/09/10 08:57:39;;;;;;;19.58;10.20;;;;;;;29.35;72.79;99207.84;5117434;27;20069;-85
2023/09/10 09:00:29;;;;;;;15.75;10.63;;;;;;;29.49;72.39;99207.75;5110991;27;20046;-85
2023/09/10 09:03:13;;;;;;;15.93;11.45;;;;;;;29.49;72.56;99209.63;5111538;27;20131;-86
2023/09/10 09:06:02;;;;;;;12.57;9.95;;;;;;;29.64;72.49;99202.94;5120459;27;20083;-85
2023/09/10 09:08:51;;;;;;;15.07;11.90;;;;;;;29.43;72.11;99198.19;5100055;27;20050;-85
2023/09/10 09:11:37;;;;;;;13.05;10.32;;;;;;;29.63;72.36;99204.06;5109094;27;20400;-85
2023/09/10 09:14:23;;;;;;;16.63;11.90;;;;;;;29.74;71.74;99191.81;5106343;27;20049;-85
2023/09/10 09:17:07;;;;;;;20.67;12.75;;;;;;;29.81;71.28;99191.34;5114750;27;20042;-85
2023/09/10 09:19:51;;;;;;;20.08;12.57;;;;;;;30.28;70.10;99198.75;5104335;28;20142;-85
2023/09/10 09:22:39;;;;;;;19.95;12.63;;;;;;;30.62;70.15;99202.47;5103914;28;20447;-85
2023/09/10 09:25:24;;;;;;;19.55;13.02;;;;;;;30.89;69.44;99195.03;5104694;28;20069;-86
2023/09/10 09:28:09;;;;;;;15.60;12.30;;;;;;;31.04;69.03;99193.66;5097599;28;20177;-86
2023/09/10 09:30:53;;;;;;;15.75;13.40;;;;;;;30.98;68.62;99194.16;5105737;28;20047;-85
2023/09/10 09:33:38;;;;;;;17.45;13.13;;;;;;;30.69;68.50;99203.91;5125406;28;20429;-86
2023/09/10 09:36:27;;;;;;;18.55;12.75;;;;;;;30.70;68.49;99191.94;5124055;28;22208;-85
2023/09/10 09:39:16;;;;;;;19.35;13.20;;;;;;;30.57;68.90;99194.50;5110250;28;20042;-86
2023/09/10 09:42:00;;;;;;;20.15;13.80;;;;;;;30.47;69.18;99200.28;5124215;28;20396;-87
2023/09/10 09:44:44;;;;;;;16.85;12.05;;;;;;;30.38;69.13;99199.53;5124590;28;20428;-85
2023/09/10 09:47:30;;;;;;;16.67;13.40;;;;;;;30.20;71.10;99204.97;5122989;28;20081;-84
2023/09/10 09:50:17;;;;;;;18.80;12.25;;;;;;;30.24;70.49;99203.22;5113105;28;20179;-85
2023/09/10 09:53:01;;;;;;;22.23;13.32;;;;;;;30.17;70.13;99197.50;5106869;28;20061;-85
2023/09/10 09:55:47;;;;;;;16.92;12.05;;;;;;;29.93;70.07;99179.88;5099651;28;20042;-86
2023/09/10 09:58:33;;;;;;;15.55;13.15;;;;;;;29.74;71.19;99177.50;5101245;28;20084;-87
2023/09/10 10:01:20;;;;;;;22.77;14.80;;;;;;;29.54;72.66;99170.84;5100071;28;20039;-85
2023/09/10 10:04:05;;;;;;;22.30;13.68;;;;;;;29.79;73.25;99172.72;5115195;28;20091;-85
2023/09/10 10:06:50;;;;;;;19.05;14.25;;;;;;;30.00;73.54;99169.34;5101288;28;20541;-86
2023/09/10 10:09:40;;;;;;;21.85;14.05;;;;;;;30.30;73.28;99165.94;5117853;28;20043;-86
2023/09/10 10:12:25;;;;;;;19.42;13.57;;;;;;;30.48;73.63;99163.97;5107724;28;20033;-86
2023/09/10 10:15:10;;;;;;;18.45;14.73;;;;;;;30.63;72.95;99163.44;5123362;28;20051;-86
2023/09/10 10:17:57;;;;;;;21.15;14.73;;;;;;;30.94;72.35;99158.00;5124767;28;20038;-86
2023/09/10 10:20:47;;;;;;;19.73;14.40;;;;;;;31.18;71.12;99158.16;5093962;28;20038;-86
2023/09/10 10:23:31;;;;;;;21.70;14.25;;;;;;;31.46;69.96;99154.94;5104481;28;20478;-87
2023/09/10 10:26:16;;;;;;;22.15;15.82;;;;;;;31.69;70.29;99149.16;5098653;28;20035;-86
2023/09/10 10:29:00;;;;;;;23.02;16.50;;;;;;;31.72;70.04;99143.06;5084574;28;20097;-86
2023/09/10 10:31:48;;;;;;;19.10;14.23;;;;;;;31.99;69.85;99145.53;5083545;28;20046;-86
2023/09/10 10:34:41;;;;;;;17.00;13.40;;;;;;;32.08;69.18;99142.72;5102781;27;20077;-85
2023/09/10 10:37:52;;;;;;;21.67;14.37;;;;;;;31.25;69.61;99137.88;5106165;28;20406;-88
2023/09/10 10:40:42;;;;;;;18.85;15.77;;;;;;;31.01;69.26;99120.31;5096844;28;20046;-86
2023/09/10 10:43:30;;;;;;;16.83;14.50;;;;;;;31.29;68.43;99150.44;5083056;28;20143;-86
2023/09/10 10:46:17;;;;;;;21.17;15.05;;;;;;;31.31;68.89;99145.47;5112197;28;20097;-86
2023/09/10 10:49:03;;;;;;;25.58;14.70;;;;;;;31.39;69.41;99135.69;5112166;28;20050;-87
2023/09/10 10:51:53;;;;;;;19.92;15.20;;;;;;;31.52;68.53;99133.03;5092244;28;20051;-87
2023/09/10 10:54:41;;;;;;;18.75;14.52;;;;;;;31.28;68.48;99135.31;5116038;28;20405;-87
2023/09/10 10:57:37;;;;;;;25.55;15.40;;;;;;;31.43;69.41;99135.81;5126330;27;20054;-86
2023/09/10 11:00:22;;;;;;;26.35;15.95;;;;;;;31.61;68.96;99128.31;5098282;28;20051;-86
2023/09/10 11:03:13;;;;;;;21.35;14.93;;;;;;;32.27;67.72;99134.81;5119550;27;20442;-86
2023/09/10 11:06:04;;;;;;;20.92;14.05;;;;;;;32.62;67.65;99130.88;5131936;27;20115;-86
2023/09/10 11:08:48;;;;;;;19.60;14.30;;;;;;;33.02;66.95;99126.66;5103553;28;20123;-87
2023/09/10 11:11:38;;;;;;;21.00;15.63;;;;;;;33.27;65.99;99130.06;5116120;27;20073;-88
2023/09/10 11:14:22;;;;;;;19.85;15.27;;;;;;;33.28;65.57;99120.00;5126358;27;20111;-86
2023/09/10 11:17:36;;;;;;;22.88;17.95;;;;;;;32.76;65.08;99111.50;5109759;27;20038;-89
2023/09/10 11:20:50;;;;;;;19.35;16.23;;;;;;;32.51;66.05;99106.09;5117193;27;20520;-86
2023/09/10 11:23:39;;;;;;;22.00;15.38;;;;;;;32.75;66.30;99105.28;5109211;28;20039;-86
2023/09/10 11:26:23;;;;;;;20.17;17.20;;;;;;;32.83;66.33;99100.84;5108008;27;20096;-86
2023/09/10 11:29:07;;;;;;;21.10;16.38;;;;;;;32.95;66.37;99099.25;5110894;28;20046;-87
2023/09/10 11:31:55;;;;;;;18.85;15.18;;;;;;;33.29;65.92;99094.38;5111348;27;20046;-87
2023/09/10 11:34:39;;;;;;;22.20;15.98;;;;;;;33.40;65.21;99083.78;5116911;27;20433;-85
2023/09/10 11:37:24;;;;;;;18.63;15.70;;;;;;;33.41;65.21;99085.38;5116597;28;20063;-88
2023/09/10 11:40:08;;;;;;;18.67;15.25;;;;;;;33.82;65.42;99096.97;5083545;28;20040;-88
2023/09/10 11:42:53;;;;;;;20.13;16.33;;;;;;;33.97;65.22;99091.91;5104277;28;20077;-88
2023/09/10 11:45:37;;;;;;;24.08;16.20;;;;;;;34.29;63.63;99089.94;5079574;28;20051;-87
2023/09/10 11:48:22;;;;;;;23.00;16.20;;;;;;;34.59;63.79;99081.31;5081809;28;20405;-88
2023/09/10 11:51:06;;;;;;;21.83;17.38;;;;;;;34.69;62.83;99079.97;5114806;28;20092;-86
2023/09/10 11:53:52;;;;;;;21.70;15.98;;;;;;;34.89;62.25;99075.31;5088364;28;20124;-88
2023/09/10 11:56:36;;;;;;;20.58;15.90;;;;;;;35.05;62.35;99079.13;5115952;28;20042;-86
2023/09/10 11:59:23;;;;;;;22.05;17.10;;;;;;;34.97;62.40;99067.25;5090261;28;20088;-88
2023/09/10 12:02:08;;;;;;;21.70;16.73;;;;;;;34.63;62.79;99067.75;5087196;28;20071;-85
2023/09/10 12:04:52;;;;;;;23.60;17.73;;;;;;;34.28;62.95;99077.47;5107428;28;20076;-86
2023/09/10 12:07:36;;;;;;;23.55;19.77;;;;;;;33.79;63.87;99067.72;5102935;28;20046;-87
2023/09/10 12:10:20;;;;;;;24.52;18.60;;;;;;;33.43;64.82;99073.03;5102342;28;20046;-87
2023/09/10 12:13:07;;;;;;;23.02;20.25;;;;;;;33.40;65.05;99081.84;5090631;28;20081;-86
2023/09/10 12:15:52;;;;;;;31.48;22.58;;;;;;;33.18;65.09;99075.84;5084869;28;20101;-87
2023/09/10 12:18:37;;;;;;;26.00;20.90;;;;;;;33.25;65.50;99060.88;5102075;28;20066;-89
2023/09/10 12:21:23;;;;;;;29.65;22.15;;;;;;;33.43;65.67;99056.72;5087812;28;20043;-86
2023/09/10 12:24:07;;;;;;;32.47;24.45;;;;;;;33.69;64.94;99054.63;5095949;28;20059;-88
2023/09/10 12:26:51;;;;;;;27.25;22.08;;;;;;;33.74;65.00;99043.50;5106208;28;20478;-88
2023/09/10 12:29:35;;;;;;;25.38;22.67;;;;;;;33.81;65.10;99037.44;5097836;28;20043;-89
2023/09/10 12:32:20;;;;;;;27.98;21.27;;;;;;;33.85;65.08;99032.88;5107493;28;20163;-88
2023/09/10 12:35:04;;;;;;;25.45;21.58;;;;;;;33.68;64.83;99032.06;5105087;28;20401;-90
2023/09/10 12:37:53;;;;;;;26.25;21.65;;;;;;;33.52;65.61;99025.81;5096422;28;20051;-91
2023/09/10 12:40:37;;;;;;;27.15;22.30;;;;;;;33.43;65.96;99026.81;5104069;28;20453;-89
2023/09/10 12:43:23;;;;;;;25.65;20.58;;;;;;;33.48;66.46;99023.00;5104192;28;20042;-87